sensor_id;sensor_type;location;lat;lon;timestamp;P1;durP1;ratioP1;P2;durP2;ratioP2
39848;SDS011;25518;47.878;15.914;2022-07-29T00:02:18;6.80;;;4.10;;
39848;SDS011;25518;47.878;15.914;2022-07-29T00:04:45;6.40;;;4.20;;
39848;SDS011;25518;47.878;15.914;2022-07-29T00:07:11;6.13;;;4.18;;
39848;SDS011;25518;47.878;15.914;2022-07-29T00:09:37;5.63;;;3.97;;
39848;SDS011;25518;47.878;15.914;2022-07-29T00:12:03;5.28;;;4.07;;
39848;SDS011;25518;47.878;15.914;2022-07-29T00:14:30;6.20;;;3.75;;
39848;SDS011;25518;47.878;15.914;2022-07-29T00:16:56;6.70;;;4.07;;
39848;SDS011;25518;47.878;15.914;2022-07-29T00:19:22;5.80;;;3.88;;
39848;SDS011;25518;47.878;15.914;2022-07-29T00:21:49;6.17;;;4.10;;
39848;SDS011;25518;47.878;15.914;2022-07-29T00:24:15;6.05;;;3.88;;
39848;SDS011;25518;47.878;15.914;2022-07-29T00:26:41;6.35;;;4.45;;
39848;SDS011;25518;47.878;15.914;2022-07-29T00:29:07;6.75;;;3.97;;
39848;SDS011;25518;47.878;15.914;2022-07-29T00:31:34;5.20;;;3.90;;
39848;SDS011;25518;47.878;15.914;2022-07-29T00:34:00;7.63;;;4.10;;
39848;SDS011;25518;47.878;15.914;2022-07-29T00:36:27;5.30;;;4.10;;
39848;SDS011;25518;47.878;15.914;2022-07-29T00:38:53;5.68;;;4.10;;
39848;SDS011;25518;47.878;15.914;2022-07-29T00:41:20;6.43;;;4.28;;
39848;SDS011;25518;47.878;15.914;2022-07-29T00:43:46;5.43;;;4.00;;
39848;SDS011;25518;47.878;15.914;2022-07-29T00:46:12;6.90;;;4.30;;
39848;SDS011;25518;47.878;15.914;2022-07-29T00:48:39;5.20;;;3.95;;
39848;SDS011;25518;47.878;15.914;2022-07-29T00:51:05;5.85;;;4.20;;
39848;SDS011;25518;47.878;15.914;2022-07-29T00:53:32;6.60;;;4.20;;
39848;SDS011;25518;47.878;15.914;2022-07-29T00:56:00;6.05;;;4.47;;
39848;SDS011;25518;47.878;15.914;2022-07-29T00:58:26;6.90;;;4.43;;
39848;SDS011;25518;47.878;15.914;2022-07-29T01:00:52;5.40;;;4.00;;
39848;SDS011;25518;47.878;15.914;2022-07-29T01:03:19;6.00;;;3.88;;
39848;SDS011;25518;47.878;15.914;2022-07-29T01:05:45;5.82;;;4.15;;
39848;SDS011;25518;47.878;15.914;2022-07-29T01:08:12;5.65;;;4.25;;
39848;SDS011;25518;47.878;15.914;2022-07-29T01:10:40;5.55;;;3.88;;
39848;SDS011;25518;47.878;15.914;2022-07-29T01:13:07;6.97;;;4.40;;
39848;SDS011;25518;47.878;15.914;2022-07-29T01:15:34;5.68;;;4.10;;
39848;SDS011;25518;47.878;15.914;2022-07-29T01:18:09;6.68;;;4.45;;
39848;SDS011;25518;47.878;15.914;2022-07-29T01:20:44;6.03;;;4.25;;
39848;SDS011;25518;47.878;15.914;2022-07-29T01:26:07;6.03;;;4.20;;
39848;SDS011;25518;47.878;15.914;2022-07-29T01:28:40;5.70;;;4.03;;
39848;SDS011;25518;47.878;15.914;2022-07-29T01:31:10;5.55;;;4.28;;
39848;SDS011;25518;47.878;15.914;2022-07-29T01:33:38;7.73;;;4.07;;
39848;SDS011;25518;47.878;15.914;2022-07-29T01:36:25;5.97;;;4.00;;
39848;SDS011;25518;47.878;15.914;2022-07-29T01:38:58;6.95;;;4.47;;
39848;SDS011;25518;47.878;15.914;2022-07-29T01:41:26;6.82;;;4.25;;
39848;SDS011;25518;47.878;15.914;2022-07-29T01:43:59;6.80;;;4.10;;
39848;SDS011;25518;47.878;15.914;2022-07-29T01:46:35;6.38;;;4.30;;
39848;SDS011;25518;47.878;15.914;2022-07-29T01:49:06;5.57;;;4.00;;
39848;SDS011;25518;47.878;15.914;2022-07-29T01:51:51;5.45;;;4.30;;
39848;SDS011;25518;47.878;15.914;2022-07-29T01:56:45;4.70;;;3.55;;
39848;SDS011;25518;47.878;15.914;2022-07-29T01:59:13;5.40;;;3.90;;
39848;SDS011;25518;47.878;15.914;2022-07-29T02:01:39;4.97;;;3.70;;
39848;SDS011;25518;47.878;15.914;2022-07-29T02:04:07;6.65;;;3.95;;
39848;SDS011;25518;47.878;15.914;2022-07-29T02:06:35;6.05;;;3.90;;
39848;SDS011;25518;47.878;15.914;2022-07-29T02:09:03;5.97;;;4.20;;
39848;SDS011;25518;47.878;15.914;2022-07-29T02:11:31;6.30;;;4.28;;
39848;SDS011;25518;47.878;15.914;2022-07-29T02:13:58;5.45;;;3.80;;
39848;SDS011;25518;47.878;15.914;2022-07-29T02:16:26;7.00;;;4.03;;
39848;SDS011;25518;47.878;15.914;2022-07-29T02:18:54;6.20;;;4.00;;
39848;SDS011;25518;47.878;15.914;2022-07-29T02:21:23;5.68;;;4.10;;
39848;SDS011;25518;47.878;15.914;2022-07-29T02:23:51;6.07;;;4.57;;
39848;SDS011;25518;47.878;15.914;2022-07-29T02:26:19;6.57;;;4.43;;
39848;SDS011;25518;47.878;15.914;2022-07-29T02:28:46;5.25;;;3.75;;
39848;SDS011;25518;47.878;15.914;2022-07-29T02:31:13;6.10;;;4.47;;
39848;SDS011;25518;47.878;15.914;2022-07-29T02:33:40;6.57;;;4.00;;
39848;SDS011;25518;47.878;15.914;2022-07-29T02:36:06;6.10;;;4.10;;
39848;SDS011;25518;47.878;15.914;2022-07-29T02:38:33;6.68;;;4.30;;
39848;SDS011;25518;47.878;15.914;2022-07-29T02:41:20;6.43;;;4.18;;
39848;SDS011;25518;47.878;15.914;2022-07-29T02:43:48;5.40;;;3.93;;
39848;SDS011;25518;47.878;15.914;2022-07-29T02:46:18;5.15;;;3.55;;
39848;SDS011;25518;47.878;15.914;2022-07-29T02:48:55;5.85;;;4.20;;
39848;SDS011;25518;47.878;15.914;2022-07-29T02:51:24;6.00;;;4.20;;
39848;SDS011;25518;47.878;15.914;2022-07-29T02:53:53;5.38;;;4.00;;
39848;SDS011;25518;47.878;15.914;2022-07-29T02:56:23;5.15;;;4.03;;
39848;SDS011;25518;47.878;15.914;2022-07-29T02:58:54;5.70;;;4.23;;
39848;SDS011;25518;47.878;15.914;2022-07-29T03:01:22;5.95;;;3.80;;
39848;SDS011;25518;47.878;15.914;2022-07-29T03:03:49;6.03;;;4.80;;
39848;SDS011;25518;47.878;15.914;2022-07-29T03:06:22;5.95;;;4.40;;
39848;SDS011;25518;47.878;15.914;2022-07-29T03:08:50;6.40;;;4.40;;
39848;SDS011;25518;47.878;15.914;2022-07-29T03:26:11;6.07;;;4.70;;
39848;SDS011;25518;47.878;15.914;2022-07-29T03:28:37;6.55;;;4.43;;
39848;SDS011;25518;47.878;15.914;2022-07-29T03:31:04;6.40;;;4.40;;
39848;SDS011;25518;47.878;15.914;2022-07-29T03:33:30;6.57;;;4.80;;
39848;SDS011;25518;47.878;15.914;2022-07-29T03:35:56;5.63;;;4.35;;
39848;SDS011;25518;47.878;15.914;2022-07-29T03:38:23;6.43;;;4.80;;
39848;SDS011;25518;47.878;15.914;2022-07-29T03:40:53;6.28;;;3.85;;
39848;SDS011;25518;47.878;15.914;2022-07-29T03:43:20;6.20;;;4.15;;
39848;SDS011;25518;47.878;15.914;2022-07-29T03:45:48;5.78;;;3.90;;
39848;SDS011;25518;47.878;15.914;2022-07-29T03:48:16;6.60;;;3.95;;
39848;SDS011;25518;47.878;15.914;2022-07-29T03:50:43;6.03;;;4.45;;
39848;SDS011;25518;47.878;15.914;2022-07-29T03:53:11;6.00;;;4.15;;
39848;SDS011;25518;47.878;15.914;2022-07-29T03:55:43;5.40;;;3.72;;
39848;SDS011;25518;47.878;15.914;2022-07-29T03:58:11;6.15;;;4.30;;
39848;SDS011;25518;47.878;15.914;2022-07-29T04:00:38;5.97;;;4.10;;
39848;SDS011;25518;47.878;15.914;2022-07-29T04:03:05;6.28;;;4.10;;
39848;SDS011;25518;47.878;15.914;2022-07-29T04:05:31;6.50;;;4.47;;
39848;SDS011;25518;47.878;15.914;2022-07-29T04:07:57;6.35;;;4.57;;
39848;SDS011;25518;47.878;15.914;2022-07-29T04:10:23;5.57;;;4.07;;
39848;SDS011;25518;47.878;15.914;2022-07-29T04:12:50;7.03;;;4.53;;
39848;SDS011;25518;47.878;15.914;2022-07-29T04:15:16;6.03;;;4.32;;
39848;SDS011;25518;47.878;15.914;2022-07-29T04:17:42;6.03;;;4.35;;
39848;SDS011;25518;47.878;15.914;2022-07-29T04:20:09;7.38;;;4.55;;
39848;SDS011;25518;47.878;15.914;2022-07-29T04:22:38;6.40;;;4.40;;
39848;SDS011;25518;47.878;15.914;2022-07-29T04:25:05;6.60;;;4.43;;
39848;SDS011;25518;47.878;15.914;2022-07-29T04:27:31;6.35;;;4.50;;
39848;SDS011;25518;47.878;15.914;2022-07-29T04:29:58;6.47;;;4.18;;
39848;SDS011;25518;47.878;15.914;2022-07-29T04:32:25;6.75;;;4.60;;
39848;SDS011;25518;47.878;15.914;2022-07-29T04:34:52;7.25;;;4.43;;
39848;SDS011;25518;47.878;15.914;2022-07-29T04:37:18;6.72;;;4.25;;
39848;SDS011;25518;47.878;15.914;2022-07-29T04:39:44;7.18;;;4.53;;
39848;SDS011;25518;47.878;15.914;2022-07-29T04:42:11;6.22;;;4.10;;
39848;SDS011;25518;47.878;15.914;2022-07-29T04:44:37;6.00;;;4.30;;
39848;SDS011;25518;47.878;15.914;2022-07-29T04:47:03;6.35;;;4.10;;
39848;SDS011;25518;47.878;15.914;2022-07-29T04:49:29;7.25;;;4.20;;
39848;SDS011;25518;47.878;15.914;2022-07-29T04:51:56;5.10;;;3.90;;
39848;SDS011;25518;47.878;15.914;2022-07-29T04:54:23;5.93;;;4.28;;
39848;SDS011;25518;47.878;15.914;2022-07-29T04:56:49;6.82;;;4.28;;
39848;SDS011;25518;47.878;15.914;2022-07-29T04:59:15;5.13;;;3.80;;
39848;SDS011;25518;47.878;15.914;2022-07-29T05:01:42;6.40;;;4.25;;
39848;SDS011;25518;47.878;15.914;2022-07-29T05:04:08;6.72;;;4.40;;
39848;SDS011;25518;47.878;15.914;2022-07-29T05:06:34;4.85;;;3.70;;
39848;SDS011;25518;47.878;15.914;2022-07-29T05:09:00;5.13;;;3.60;;
39848;SDS011;25518;47.878;15.914;2022-07-29T05:11:27;5.47;;;3.70;;
39848;SDS011;25518;47.878;15.914;2022-07-29T05:13:53;5.32;;;3.80;;
39848;SDS011;25518;47.878;15.914;2022-07-29T05:16:19;5.20;;;4.03;;
39848;SDS011;25518;47.878;15.914;2022-07-29T05:18:46;5.55;;;3.90;;
39848;SDS011;25518;47.878;15.914;2022-07-29T05:21:12;5.53;;;3.42;;
39848;SDS011;25518;47.878;15.914;2022-07-29T05:23:38;5.40;;;3.78;;
39848;SDS011;25518;47.878;15.914;2022-07-29T05:26:04;5.40;;;3.72;;
39848;SDS011;25518;47.878;15.914;2022-07-29T05:28:34;5.53;;;3.90;;
39848;SDS011;25518;47.878;15.914;2022-07-29T05:31:00;6.05;;;3.95;;
39848;SDS011;25518;47.878;15.914;2022-07-29T05:33:26;6.15;;;4.07;;
39848;SDS011;25518;47.878;15.914;2022-07-29T05:35:53;5.97;;;4.00;;
39848;SDS011;25518;47.878;15.914;2022-07-29T05:38:19;6.70;;;4.50;;
39848;SDS011;25518;47.878;15.914;2022-07-29T05:40:45;6.90;;;4.38;;
39848;SDS011;25518;47.878;15.914;2022-07-29T05:43:11;6.53;;;4.53;;
39848;SDS011;25518;47.878;15.914;2022-07-29T05:45:38;5.22;;;4.15;;
39848;SDS011;25518;47.878;15.914;2022-07-29T05:48:05;5.95;;;4.00;;
39848;SDS011;25518;47.878;15.914;2022-07-29T05:50:31;5.40;;;4.10;;
39848;SDS011;25518;47.878;15.914;2022-07-29T05:52:57;5.93;;;4.50;;
39848;SDS011;25518;47.878;15.914;2022-07-29T05:55:24;6.55;;;4.15;;
39848;SDS011;25518;47.878;15.914;2022-07-29T05:57:51;5.90;;;3.80;;
39848;SDS011;25518;47.878;15.914;2022-07-29T06:00:18;5.57;;;4.20;;
39848;SDS011;25518;47.878;15.914;2022-07-29T06:02:44;6.83;;;4.70;;
39848;SDS011;25518;47.878;15.914;2022-07-29T06:05:11;6.93;;;4.43;;
39848;SDS011;25518;47.878;15.914;2022-07-29T06:07:37;5.70;;;4.13;;
39848;SDS011;25518;47.878;15.914;2022-07-29T06:10:03;6.22;;;4.45;;
39848;SDS011;25518;47.878;15.914;2022-07-29T06:12:30;6.03;;;4.28;;
39848;SDS011;25518;47.878;15.914;2022-07-29T06:14:56;7.57;;;4.60;;
39848;SDS011;25518;47.878;15.914;2022-07-29T06:17:23;5.72;;;4.40;;
39848;SDS011;25518;47.878;15.914;2022-07-29T06:19:49;5.95;;;4.30;;
39848;SDS011;25518;47.878;15.914;2022-07-29T06:22:15;6.30;;;3.93;;
39848;SDS011;25518;47.878;15.914;2022-07-29T06:24:42;6.00;;;4.00;;
39848;SDS011;25518;47.878;15.914;2022-07-29T06:29:51;5.90;;;4.07;;
39848;SDS011;25518;47.878;15.914;2022-07-29T06:32:18;5.63;;;4.07;;
39848;SDS011;25518;47.878;15.914;2022-07-29T06:34:44;5.10;;;4.00;;
39848;SDS011;25518;47.878;15.914;2022-07-29T06:37:10;5.85;;;4.40;;
39848;SDS011;25518;47.878;15.914;2022-07-29T06:39:36;6.60;;;4.18;;
39848;SDS011;25518;47.878;15.914;2022-07-29T06:42:04;5.77;;;4.60;;
39848;SDS011;25518;47.878;15.914;2022-07-29T06:44:30;5.65;;;3.70;;
39848;SDS011;25518;47.878;15.914;2022-07-29T06:46:59;5.40;;;4.10;;
39848;SDS011;25518;47.878;15.914;2022-07-29T06:49:25;7.03;;;3.83;;
39848;SDS011;25518;47.878;15.914;2022-07-29T06:51:53;5.50;;;4.03;;
39848;SDS011;25518;47.878;15.914;2022-07-29T06:54:19;5.55;;;4.00;;
39848;SDS011;25518;47.878;15.914;2022-07-29T06:56:46;5.20;;;3.90;;
39848;SDS011;25518;47.878;15.914;2022-07-29T06:59:13;6.47;;;3.73;;
39848;SDS011;25518;47.878;15.914;2022-07-29T07:01:41;6.68;;;4.22;;
39848;SDS011;25518;47.878;15.914;2022-07-29T07:04:08;5.38;;;4.15;;
39848;SDS011;25518;47.878;15.914;2022-07-29T07:06:34;7.82;;;3.85;;
39848;SDS011;25518;47.878;15.914;2022-07-29T07:09:01;5.90;;;4.00;;
39848;SDS011;25518;47.878;15.914;2022-07-29T07:11:27;7.90;;;3.97;;
39848;SDS011;25518;47.878;15.914;2022-07-29T07:13:54;5.28;;;3.97;;
39848;SDS011;25518;47.878;15.914;2022-07-29T07:16:21;6.50;;;4.22;;
39848;SDS011;25518;47.878;15.914;2022-07-29T07:18:47;5.40;;;3.95;;
39848;SDS011;25518;47.878;15.914;2022-07-29T07:21:14;5.78;;;4.05;;
39848;SDS011;25518;47.878;15.914;2022-07-29T07:23:40;4.53;;;3.60;;
39848;SDS011;25518;47.878;15.914;2022-07-29T07:26:06;5.65;;;3.95;;
39848;SDS011;25518;47.878;15.914;2022-07-29T07:28:33;5.25;;;4.20;;
39848;SDS011;25518;47.878;15.914;2022-07-29T07:30:59;7.13;;;4.97;;
39848;SDS011;25518;47.878;15.914;2022-07-29T07:33:25;5.80;;;4.60;;
39848;SDS011;25518;47.878;15.914;2022-07-29T07:35:51;5.88;;;4.32;;
39848;SDS011;25518;47.878;15.914;2022-07-29T07:38:18;5.75;;;3.83;;
39848;SDS011;25518;47.878;15.914;2022-07-29T07:40:44;5.22;;;4.20;;
39848;SDS011;25518;47.878;15.914;2022-07-29T07:43:11;4.97;;;4.05;;
39848;SDS011;25518;47.878;15.914;2022-07-29T07:45:37;7.32;;;4.72;;
39848;SDS011;25518;47.878;15.914;2022-07-29T07:48:05;4.82;;;3.67;;
39848;SDS011;25518;47.878;15.914;2022-07-29T07:50:31;5.47;;;4.10;;
39848;SDS011;25518;47.878;15.914;2022-07-29T07:52:57;6.90;;;4.30;;
39848;SDS011;25518;47.878;15.914;2022-07-29T07:55:24;5.95;;;4.05;;
39848;SDS011;25518;47.878;15.914;2022-07-29T07:57:51;6.55;;;3.88;;
39848;SDS011;25518;47.878;15.914;2022-07-29T08:00:17;4.20;;;3.33;;
39848;SDS011;25518;47.878;15.914;2022-07-29T08:02:44;5.13;;;3.50;;
39848;SDS011;25518;47.878;15.914;2022-07-29T08:05:10;5.72;;;4.00;;
39848;SDS011;25518;47.878;15.914;2022-07-29T08:07:41;5.53;;;3.92;;
39848;SDS011;25518;47.878;15.914;2022-07-29T08:10:07;5.90;;;4.53;;
39848;SDS011;25518;47.878;15.914;2022-07-29T08:12:33;4.95;;;3.22;;
39848;SDS011;25518;47.878;15.914;2022-07-29T08:15:00;6.47;;;3.80;;
39848;SDS011;25518;47.878;15.914;2022-07-29T08:17:26;4.85;;;3.22;;
39848;SDS011;25518;47.878;15.914;2022-07-29T08:19:53;4.43;;;3.10;;
39848;SDS011;25518;47.878;15.914;2022-07-29T08:22:19;7.43;;;3.50;;
39848;SDS011;25518;47.878;15.914;2022-07-29T08:24:46;5.25;;;3.95;;
39848;SDS011;25518;47.878;15.914;2022-07-29T08:27:18;6.07;;;3.55;;
39848;SDS011;25518;47.878;15.914;2022-07-29T08:29:45;5.10;;;3.50;;
39848;SDS011;25518;47.878;15.914;2022-07-29T08:32:12;5.95;;;3.60;;
39848;SDS011;25518;47.878;15.914;2022-07-29T08:34:38;5.55;;;3.95;;
39848;SDS011;25518;47.878;15.914;2022-07-29T08:37:04;8.03;;;4.17;;
39848;SDS011;25518;47.878;15.914;2022-07-29T08:39:31;5.75;;;3.80;;
39848;SDS011;25518;47.878;15.914;2022-07-29T08:41:57;8.20;;;3.75;;
39848;SDS011;25518;47.878;15.914;2022-07-29T08:44:23;8.02;;;3.40;;
39848;SDS011;25518;47.878;15.914;2022-07-29T08:46:50;7.10;;;4.30;;
39848;SDS011;25518;47.878;15.914;2022-07-29T08:49:17;4.70;;;3.45;;
39848;SDS011;25518;47.878;15.914;2022-07-29T08:51:43;8.30;;;3.63;;
39848;SDS011;25518;47.878;15.914;2022-07-29T08:54:11;5.43;;;3.78;;
39848;SDS011;25518;47.878;15.914;2022-07-29T08:56:40;6.32;;;3.85;;
39848;SDS011;25518;47.878;15.914;2022-07-29T08:59:06;5.20;;;3.40;;
39848;SDS011;25518;47.878;15.914;2022-07-29T09:01:34;6.65;;;3.42;;
39848;SDS011;25518;47.878;15.914;2022-07-29T09:04:04;6.75;;;3.85;;
39848;SDS011;25518;47.878;15.914;2022-07-29T09:06:32;5.22;;;3.80;;
39848;SDS011;25518;47.878;15.914;2022-07-29T09:09:00;5.07;;;3.25;;
39848;SDS011;25518;47.878;15.914;2022-07-29T09:11:26;4.88;;;3.67;;
39848;SDS011;25518;47.878;15.914;2022-07-29T09:13:53;5.90;;;3.92;;
39848;SDS011;25518;47.878;15.914;2022-07-29T09:16:20;4.68;;;3.50;;
39848;SDS011;25518;47.878;15.914;2022-07-29T09:18:46;5.25;;;3.72;;
39848;SDS011;25518;47.878;15.914;2022-07-29T09:21:14;5.18;;;3.67;;
39848;SDS011;25518;47.878;15.914;2022-07-29T09:26:32;5.70;;;3.72;;
39848;SDS011;25518;47.878;15.914;2022-07-29T09:28:59;5.33;;;3.77;;
39848;SDS011;25518;47.878;15.914;2022-07-29T09:31:34;5.75;;;3.50;;
39848;SDS011;25518;47.878;15.914;2022-07-29T09:34:00;5.18;;;3.70;;
39848;SDS011;25518;47.878;15.914;2022-07-29T09:36:27;9.37;;;4.73;;
39848;SDS011;25518;47.878;15.914;2022-07-29T09:39:02;5.55;;;3.83;;
39848;SDS011;25518;47.878;15.914;2022-07-29T09:41:28;15.20;;;4.40;;
39848;SDS011;25518;47.878;15.914;2022-07-29T09:46:21;5.18;;;4.00;;
39848;SDS011;25518;47.878;15.914;2022-07-29T09:49:17;6.80;;;4.18;;
39848;SDS011;25518;47.878;15.914;2022-07-29T09:51:34;4.97;;;3.72;;
39848;SDS011;25518;47.878;15.914;2022-07-29T09:54:01;5.10;;;4.05;;
39848;SDS011;25518;47.878;15.914;2022-07-29T09:56:45;5.43;;;3.67;;
39848;SDS011;25518;47.878;15.914;2022-07-29T09:59:13;5.10;;;3.75;;
39848;SDS011;25518;47.878;15.914;2022-07-29T10:01:39;6.35;;;4.15;;
39848;SDS011;25518;47.878;15.914;2022-07-29T10:04:06;9.00;;;4.40;;
39848;SDS011;25518;47.878;15.914;2022-07-29T10:06:32;5.90;;;3.90;;
39848;SDS011;25518;47.878;15.914;2022-07-29T10:09:13;6.85;;;4.38;;
39848;SDS011;25518;47.878;15.914;2022-07-29T10:11:40;7.43;;;3.92;;
39848;SDS011;25518;47.878;15.914;2022-07-29T10:14:06;7.32;;;4.00;;
39848;SDS011;25518;47.878;15.914;2022-07-29T10:16:33;6.45;;;3.80;;
39848;SDS011;25518;47.878;15.914;2022-07-29T10:18:59;6.63;;;4.32;;
39848;SDS011;25518;47.878;15.914;2022-07-29T10:21:26;5.97;;;4.00;;
39848;SDS011;25518;47.878;15.914;2022-07-29T10:23:53;6.13;;;3.80;;
39848;SDS011;25518;47.878;15.914;2022-07-29T10:26:19;6.95;;;3.55;;
39848;SDS011;25518;47.878;15.914;2022-07-29T10:28:46;10.88;;;4.50;;
39848;SDS011;25518;47.878;15.914;2022-07-29T10:31:20;5.90;;;3.87;;
39848;SDS011;25518;47.878;15.914;2022-07-29T10:36:21;5.57;;;3.60;;
39848;SDS011;25518;47.878;15.914;2022-07-29T10:38:53;7.18;;;3.88;;
39848;SDS011;25518;47.878;15.914;2022-07-29T10:44:09;5.72;;;3.97;;
39848;SDS011;25518;47.878;15.914;2022-07-29T10:46:39;5.55;;;3.97;;
39848;SDS011;25518;47.878;15.914;2022-07-29T10:49:10;5.80;;;4.20;;
39848;SDS011;25518;47.878;15.914;2022-07-29T10:52:08;5.60;;;3.67;;
39848;SDS011;25518;47.878;15.914;2022-07-29T10:54:53;6.10;;;3.80;;
39848;SDS011;25518;47.878;15.914;2022-07-29T10:59:38;5.63;;;4.00;;
39848;SDS011;25518;47.878;15.914;2022-07-29T11:07:17;5.78;;;4.05;;
39848;SDS011;25518;47.878;15.914;2022-07-29T11:09:43;7.07;;;3.75;;
39848;SDS011;25518;47.878;15.914;2022-07-29T11:14:57;5.70;;;4.10;;
39848;SDS011;25518;47.878;15.914;2022-07-29T11:17:25;6.00;;;3.88;;
39848;SDS011;25518;47.878;15.914;2022-07-29T11:19:51;5.18;;;3.92;;
39848;SDS011;25518;47.878;15.914;2022-07-29T11:22:34;7.55;;;4.18;;
39848;SDS011;25518;47.878;15.914;2022-07-29T11:25:18;5.65;;;4.07;;
39848;SDS011;25518;47.878;15.914;2022-07-29T11:27:44;5.03;;;3.92;;
39848;SDS011;25518;47.878;15.914;2022-07-29T11:30:11;7.68;;;4.35;;
39848;SDS011;25518;47.878;15.914;2022-07-29T11:32:39;6.00;;;4.15;;
39848;SDS011;25518;47.878;15.914;2022-07-29T11:35:22;8.75;;;4.32;;
39848;SDS011;25518;47.878;15.914;2022-07-29T11:38:23;6.68;;;4.25;;
39848;SDS011;25518;47.878;15.914;2022-07-29T11:40:35;5.80;;;4.20;;
39848;SDS011;25518;47.878;15.914;2022-07-29T11:43:01;6.25;;;4.00;;
39848;SDS011;25518;47.878;15.914;2022-07-29T11:45:44;5.63;;;4.27;;
39848;SDS011;25518;47.878;15.914;2022-07-29T11:48:14;7.20;;;3.90;;
39848;SDS011;25518;47.878;15.914;2022-07-29T11:50:42;5.75;;;4.18;;
39848;SDS011;25518;47.878;15.914;2022-07-29T11:53:11;7.40;;;4.53;;
39848;SDS011;25518;47.878;15.914;2022-07-29T11:55:38;6.95;;;4.80;;
39848;SDS011;25518;47.878;15.914;2022-07-29T11:58:06;7.38;;;5.10;;
39848;SDS011;25518;47.878;15.914;2022-07-29T12:00:34;5.75;;;4.25;;
39848;SDS011;25518;47.878;15.914;2022-07-29T12:03:02;5.75;;;4.13;;
39848;SDS011;25518;47.878;15.914;2022-07-29T12:05:31;7.18;;;4.65;;
39848;SDS011;25518;47.878;15.914;2022-07-29T12:08:04;8.93;;;4.90;;
39848;SDS011;25518;47.878;15.914;2022-07-29T12:10:30;5.93;;;4.40;;
39848;SDS011;25518;47.878;15.914;2022-07-29T12:12:57;6.75;;;4.40;;
39848;SDS011;25518;47.878;15.914;2022-07-29T12:15:23;5.78;;;4.43;;
39848;SDS011;25518;47.878;15.914;2022-07-29T12:17:51;5.43;;;4.32;;
39848;SDS011;25518;47.878;15.914;2022-07-29T12:20:25;5.43;;;4.47;;
39848;SDS011;25518;47.878;15.914;2022-07-29T12:22:52;6.75;;;4.20;;
39848;SDS011;25518;47.878;15.914;2022-07-29T12:25:20;6.50;;;4.55;;
39848;SDS011;25518;47.878;15.914;2022-07-29T12:27:47;6.32;;;4.60;;
39848;SDS011;25518;47.878;15.914;2022-07-29T12:30:23;9.90;;;5.00;;
39848;SDS011;25518;47.878;15.914;2022-07-29T12:32:49;9.13;;;5.43;;
39848;SDS011;25518;47.878;15.914;2022-07-29T12:35:22;8.13;;;5.50;;
39848;SDS011;25518;47.878;15.914;2022-07-29T12:38:21;9.35;;;6.38;;
39848;SDS011;25518;47.878;15.914;2022-07-29T12:40:48;9.93;;;5.78;;
39848;SDS011;25518;47.878;15.914;2022-07-29T12:43:17;10.70;;;6.07;;
39848;SDS011;25518;47.878;15.914;2022-07-29T12:45:45;11.07;;;6.65;;
39848;SDS011;25518;47.878;15.914;2022-07-29T12:48:12;7.43;;;6.07;;
39848;SDS011;25518;47.878;15.914;2022-07-29T12:50:56;10.00;;;6.00;;
39848;SDS011;25518;47.878;15.914;2022-07-29T12:53:23;9.30;;;6.10;;
39848;SDS011;25518;47.878;15.914;2022-07-29T12:55:50;9.27;;;6.07;;
39848;SDS011;25518;47.878;15.914;2022-07-29T12:58:47;11.77;;;7.10;;
39848;SDS011;25518;47.878;15.914;2022-07-29T13:01:08;14.93;;;9.03;;
39848;SDS011;25518;47.878;15.914;2022-07-29T13:03:43;14.68;;;8.52;;
39848;SDS011;25518;47.878;15.914;2022-07-29T13:06:26;11.85;;;6.40;;
39848;SDS011;25518;47.878;15.914;2022-07-29T13:39:24;6.18;;;3.38;;
39848;SDS011;25518;47.878;15.914;2022-07-29T13:52:15;6.18;;;3.30;;
39848;SDS011;25518;47.878;15.914;2022-07-29T13:54:41;7.10;;;3.42;;
39848;SDS011;25518;47.878;15.914;2022-07-29T13:57:08;7.10;;;3.70;;
39848;SDS011;25518;47.878;15.914;2022-07-29T13:59:36;6.85;;;3.45;;
39848;SDS011;25518;47.878;15.914;2022-07-29T14:02:02;4.55;;;2.95;;
39848;SDS011;25518;47.878;15.914;2022-07-29T14:04:30;5.70;;;3.40;;
39848;SDS011;25518;47.878;15.914;2022-07-29T14:06:56;6.10;;;3.20;;
39848;SDS011;25518;47.878;15.914;2022-07-29T14:09:22;5.75;;;3.45;;
39848;SDS011;25518;47.878;15.914;2022-07-29T14:11:48;4.75;;;3.25;;
39848;SDS011;25518;47.878;15.914;2022-07-29T14:14:16;5.28;;;3.53;;
39848;SDS011;25518;47.878;15.914;2022-07-29T14:16:43;7.78;;;3.45;;
39848;SDS011;25518;47.878;15.914;2022-07-29T14:19:09;4.38;;;3.00;;
39848;SDS011;25518;47.878;15.914;2022-07-29T14:21:36;6.00;;;3.38;;
39848;SDS011;25518;47.878;15.914;2022-07-29T14:24:03;5.85;;;3.25;;
39848;SDS011;25518;47.878;15.914;2022-07-29T14:26:29;6.35;;;3.08;;
39848;SDS011;25518;47.878;15.914;2022-07-29T14:28:56;4.82;;;2.80;;
39848;SDS011;25518;47.878;15.914;2022-07-29T14:31:22;5.68;;;3.22;;
39848;SDS011;25518;47.878;15.914;2022-07-29T14:33:48;5.22;;;3.28;;
39848;SDS011;25518;47.878;15.914;2022-07-29T14:36:14;4.13;;;3.03;;
39848;SDS011;25518;47.878;15.914;2022-07-29T14:38:41;5.43;;;3.25;;
39848;SDS011;25518;47.878;15.914;2022-07-29T14:41:07;4.97;;;2.67;;
39848;SDS011;25518;47.878;15.914;2022-07-29T14:43:34;6.30;;;3.07;;
39848;SDS011;25518;47.878;15.914;2022-07-29T14:46:01;4.63;;;2.97;;
39848;SDS011;25518;47.878;15.914;2022-07-29T14:48:27;4.55;;;2.95;;
39848;SDS011;25518;47.878;15.914;2022-07-29T14:50:54;5.15;;;3.10;;
39848;SDS011;25518;47.878;15.914;2022-07-29T14:53:21;6.40;;;3.55;;
39848;SDS011;25518;47.878;15.914;2022-07-29T14:55:48;4.18;;;2.88;;
39848;SDS011;25518;47.878;15.914;2022-07-29T14:58:14;5.13;;;3.15;;
39848;SDS011;25518;47.878;15.914;2022-07-29T15:00:40;4.93;;;3.13;;
39848;SDS011;25518;47.878;15.914;2022-07-29T15:03:07;4.97;;;3.05;;
39848;SDS011;25518;47.878;15.914;2022-07-29T15:05:35;3.60;;;2.33;;
39848;SDS011;25518;47.878;15.914;2022-07-29T15:08:02;5.10;;;2.67;;
39848;SDS011;25518;47.878;15.914;2022-07-29T15:10:28;6.32;;;3.45;;
39848;SDS011;25518;47.878;15.914;2022-07-29T15:12:54;4.93;;;2.97;;
39848;SDS011;25518;47.878;15.914;2022-07-29T15:15:21;5.28;;;3.15;;
39848;SDS011;25518;47.878;15.914;2022-07-29T15:17:47;4.03;;;2.83;;
39848;SDS011;25518;47.878;15.914;2022-07-29T15:20:13;4.22;;;2.53;;
39848;SDS011;25518;47.878;15.914;2022-07-29T15:22:40;4.43;;;2.60;;
39848;SDS011;25518;47.878;15.914;2022-07-29T15:25:08;4.93;;;2.72;;
39848;SDS011;25518;47.878;15.914;2022-07-29T15:27:34;5.03;;;2.60;;
39848;SDS011;25518;47.878;15.914;2022-07-29T15:30:00;4.57;;;2.53;;
39848;SDS011;25518;47.878;15.914;2022-07-29T15:32:27;4.72;;;2.42;;
39848;SDS011;25518;47.878;15.914;2022-07-29T15:34:53;5.77;;;2.63;;
39848;SDS011;25518;47.878;15.914;2022-07-29T15:37:19;4.65;;;2.92;;
39848;SDS011;25518;47.878;15.914;2022-07-29T15:39:45;4.50;;;3.03;;
39848;SDS011;25518;47.878;15.914;2022-07-29T15:42:12;4.63;;;2.90;;
39848;SDS011;25518;47.878;15.914;2022-07-29T15:44:38;5.18;;;2.80;;
39848;SDS011;25518;47.878;15.914;2022-07-29T15:47:05;4.40;;;2.90;;
39848;SDS011;25518;47.878;15.914;2022-07-29T15:49:34;4.47;;;2.70;;
39848;SDS011;25518;47.878;15.914;2022-07-29T15:52:01;4.93;;;2.90;;
39848;SDS011;25518;47.878;15.914;2022-07-29T15:54:28;5.68;;;2.80;;
39848;SDS011;25518;47.878;15.914;2022-07-29T15:56:55;6.70;;;5.60;;
39848;SDS011;25518;47.878;15.914;2022-07-29T15:59:21;5.38;;;2.95;;
39848;SDS011;25518;47.878;15.914;2022-07-29T16:01:48;4.30;;;2.90;;
39848;SDS011;25518;47.878;15.914;2022-07-29T16:04:15;4.25;;;2.58;;